createdAt,value
2023-02-09T00:02:29.532Z,52.57
2023-02-09T00:07:21.642Z,53.00
2023-02-09T00:12:32.117Z,53.47
2023-02-09T00:17:25.052Z,53.73
2023-02-09T00:22:16.818Z,53.28
2023-02-09T00:27:08.737Z,53.27
2023-02-09T00:32:00.520Z,54.26
2023-02-09T00:36:52.295Z,54.40
2023-02-09T00:42:02.574Z,54.48
2023-02-09T00:46:54.441Z,54.58
2023-02-09T00:51:46.702Z,54.81
2023-02-09T00:56:38.587Z,55.06
2023-02-09T01:01:31.336Z,55.05
2023-02-09T01:06:23.115Z,55.41
2023-02-09T01:11:15.796Z,54.72
2023-02-09T01:16:09.220Z,55.31
2023-02-09T01:21:01.316Z,54.91
2023-02-09T01:26:07.689Z,55.14
2023-02-09T01:30:59.555Z,55.90
2023-02-09T01:35:51.410Z,55.90
2023-02-09T01:40:48.011Z,56.13
2023-02-09T01:45:51.040Z,56.85
2023-02-09T01:50:46.653Z,56.21
2023-02-09T01:55:48.518Z,56.75
2023-02-09T02:00:40.486Z,57.22
2023-02-09T02:05:36.718Z,57.09
2023-02-09T02:10:29.189Z,57.18
2023-02-09T02:15:25.427Z,57.40
2023-02-09T02:20:29.314Z,57.16
2023-02-09T02:25:40.161Z,58.06
2023-02-09T02:30:58.350Z,58.29
2023-02-09T02:36:17.674Z,57.85
2023-02-09T02:42:15.612Z,58.06
2023-02-09T02:47:11.390Z,58.07
2023-02-09T02:52:08.092Z,58.16
2023-02-09T02:57:04.707Z,57.59
2023-02-09T03:02:02.099Z,57.81
2023-02-09T03:06:53.889Z,57.58
2023-02-09T03:11:49.437Z,58.26
2023-02-09T03:22:25.089Z,58.86
2023-02-09T03:27:19.424Z,59.03
2023-02-09T03:32:11.707Z,60.09
2023-02-09T03:37:03.558Z,59.85
2023-02-09T03:41:55.311Z,60.22
2023-02-09T03:46:47.086Z,60.44
2023-02-09T03:51:38.788Z,60.57
2023-02-09T03:56:30.402Z,60.70
2023-02-09T04:01:22.115Z,61.07
2023-02-09T04:06:13.808Z,60.86
2023-02-09T04:11:05.550Z,61.35
2023-02-09T04:15:57.258Z,61.24
2023-02-09T04:20:49.297Z,61.62
2023-02-09T04:25:41.045Z,61.89
2023-02-09T04:30:32.756Z,61.98
2023-02-09T04:35:26.623Z,61.84
2023-02-09T04:40:18.418Z,61.85
2023-02-09T04:45:10.095Z,62.45
2023-02-09T04:50:02.007Z,62.22
2023-02-09T04:54:53.802Z,63.13
2023-02-09T04:59:45.764Z,62.58
2023-02-09T05:04:37.476Z,63.63
2023-02-09T05:09:29.416Z,63.67
2023-02-09T05:14:21.278Z,63.97
2023-02-09T05:19:13.108Z,64.65
2023-02-09T05:24:05.144Z,64.96
2023-02-09T05:28:56.949Z,65.52
2023-02-09T05:33:48.672Z,65.63
2023-02-09T05:38:40.899Z,66.00
2023-02-09T05:43:32.604Z,65.91
2023-02-09T05:48:25.180Z,66.46
2023-02-09T05:53:17.051Z,66.64
2023-02-09T05:58:08.836Z,66.44
2023-02-09T06:03:00.445Z,66.77
2023-02-09T06:07:52.531Z,67.22
2023-02-09T06:12:44.654Z,67.33
2023-02-09T06:17:36.931Z,66.81
2023-02-09T06:22:29.984Z,66.95
2023-02-09T06:27:21.742Z,66.64
2023-02-09T06:32:13.513Z,66.96
2023-02-09T06:37:05.246Z,66.74
2023-02-09T06:41:57.128Z,66.84
2023-02-09T06:46:49.010Z,65.75
2023-02-09T06:51:40.832Z,65.69
2023-02-09T06:56:32.906Z,66.02
2023-02-09T07:01:24.669Z,65.92
2023-02-09T07:06:18.929Z,66.15
2023-02-09T07:11:14.159Z,65.92
2023-02-09T07:16:08.419Z,65.09
2023-02-09T07:21:08.730Z,65.11
2023-02-09T07:26:05.980Z,64.95
2023-02-09T07:31:02.870Z,63.23
2023-02-09T07:35:54.958Z,63.27
2023-02-09T07:40:47.051Z,62.46
2023-02-09T07:45:39.751Z,61.39
2023-02-09T07:50:32.008Z,60.54
2023-02-09T07:55:24.353Z,57.03
2023-02-09T08:00:17.549Z,51.79
2023-02-09T08:05:14.548Z,49.34
2023-02-09T08:10:06.539Z,47.28
2023-02-09T08:14:58.310Z,47.85
2023-02-09T08:20:00.783Z,47.26
2023-02-09T08:24:53.284Z,46.21
2023-02-09T08:29:46.541Z,44.87
2023-02-09T08:34:39.045Z,44.45
2023-02-09T08:39:30.793Z,43.62
2023-02-09T08:44:22.572Z,44.79
2023-02-09T08:49:14.310Z,43.56
2023-02-09T08:54:05.940Z,45.16
2023-02-09T08:58:58.016Z,44.90
2023-02-09T09:03:49.796Z,44.85
2023-02-09T09:08:41.690Z,43.48
2023-02-09T09:13:33.483Z,43.76
2023-02-09T09:18:26.108Z,44.75
2023-02-09T09:23:18.208Z,45.68
2023-02-09T09:28:10.344Z,44.92
2023-02-09T09:33:02.652Z,44.17
2023-02-09T09:37:57.307Z,42.91
2023-02-09T09:42:54.948Z,43.76
2023-02-09T09:47:47.812Z,44.42
2023-02-09T09:52:42.665Z,45.46
2023-02-09T09:57:41.915Z,45.51
2023-02-09T10:02:34.659Z,45.47
2023-02-09T10:07:32.142Z,45.50
2023-02-09T10:12:34.058Z,45.70
2023-02-09T10:17:25.691Z,45.53
2023-02-09T10:22:20.752Z,46.51
2023-02-09T10:27:26.456Z,48.07
2023-02-09T10:32:28.967Z,47.27
2023-02-09T10:37:26.895Z,46.76
2023-02-09T10:42:25.151Z,46.04
2023-02-09T10:47:19.836Z,45.84
2023-02-09T10:52:23.624Z,45.64
2023-02-09T10:57:22.606Z,46.18
2023-02-09T11:02:29.832Z,45.82
2023-02-09T11:07:26.623Z,44.29
2023-02-09T11:12:22.801Z,45.46
2023-02-09T11:17:26.767Z,44.71
2023-02-09T11:22:18.412Z,45.08
2023-02-09T11:27:28.184Z,44.34
2023-02-09T11:32:43.870Z,43.35
2023-02-09T11:37:39.576Z,44.46
2023-02-09T11:42:45.762Z,44.53
2023-02-09T11:47:48.028Z,44.52
2023-02-09T11:52:51.629Z,43.01
2023-02-09T11:57:50.678Z,41.72
2023-02-09T12:02:46.335Z,42.88
2023-02-09T12:07:44.506Z,42.05
2023-02-09T12:13:01.469Z,43.43
2023-02-09T12:17:57.717Z,41.77
2023-02-09T12:22:53.823Z,42.70
2023-02-09T12:28:23.524Z,42.46
2023-02-09T12:33:16.414Z,41.10
2023-02-09T12:38:18.478Z,40.45
2023-02-09T12:43:25.699Z,40.50
2023-02-09T12:48:19.205Z,40.15
2023-02-09T12:53:23.438Z,40.11
2023-02-09T12:58:40.109Z,39.06
2023-02-09T13:03:41.072Z,38.90
2023-02-09T13:08:37.864Z,38.04
2023-02-09T13:13:33.090Z,38.39
2023-02-09T13:18:40.995Z,37.58
2023-02-09T13:23:41.512Z,37.34
2023-02-09T13:28:33.290Z,36.86
2023-02-09T13:33:50.993Z,37.05
2023-02-09T13:38:43.240Z,37.92
2023-02-09T13:43:40.424Z,36.95
2023-02-09T13:48:35.668Z,35.86
2023-02-09T13:53:29.158Z,36.70
2023-02-09T13:58:24.898Z,35.96
2023-02-09T14:03:21.448Z,36.12
2023-02-09T14:08:15.576Z,36.90
2023-02-09T14:13:20.352Z,36.68
2023-02-09T14:18:47.525Z,37.42
2023-02-09T14:23:48.749Z,37.08
2023-02-09T14:28:43.306Z,36.12
2023-02-09T14:33:37.516Z,36.41
2023-02-09T14:38:42.957Z,37.20
2023-02-09T14:43:34.695Z,36.99
2023-02-09T14:48:28.612Z,36.65
2023-02-09T14:53:21.926Z,37.34
2023-02-09T14:58:24.998Z,37.67
2023-02-09T15:03:16.659Z,37.63
2023-02-09T15:08:15.994Z,37.56
2023-02-09T15:13:11.253Z,37.10
2023-02-09T15:18:03.320Z,37.55
2023-02-09T15:22:55.869Z,37.76
2023-02-09T15:27:52.734Z,37.62
2023-02-09T15:32:45.151Z,37.48
2023-02-09T15:37:39.461Z,38.14
2023-02-09T15:42:49.794Z,38.86
2023-02-09T15:47:52.774Z,38.83
2023-02-09T15:52:44.593Z,39.47
2023-02-09T15:57:36.618Z,39.93
2023-02-09T16:02:28.267Z,40.04
2023-02-09T16:07:26.102Z,40.71
2023-02-09T16:12:17.730Z,41.14
2023-02-09T16:17:09.452Z,41.84
2023-02-09T16:22:04.493Z,41.92
2023-02-09T16:26:58.887Z,42.04
2023-02-09T16:31:50.547Z,43.62
2023-02-09T16:36:43.340Z,44.19
2023-02-09T16:41:47.321Z,44.89
2023-02-09T16:46:39.084Z,45.19
2023-02-09T16:51:30.769Z,46.06
2023-02-09T16:56:24.851Z,47.12
2023-02-09T17:01:19.126Z,47.02
2023-02-09T17:06:20.157Z,47.18
2023-02-09T17:11:29.922Z,47.70
2023-02-09T17:16:24.438Z,47.92
2023-02-09T17:21:19.116Z,48.92
2023-02-09T17:26:11.893Z,49.28
2023-02-09T17:31:13.063Z,49.97
2023-02-09T17:41:21.189Z,51.39
2023-02-09T17:46:15.957Z,52.16
2023-02-09T17:51:19.546Z,53.29
2023-02-09T17:56:11.768Z,53.35
2023-02-09T18:01:32.620Z,53.87
2023-02-09T18:06:34.310Z,54.06
2023-02-09T18:11:45.506Z,54.28
2023-02-09T18:16:37.692Z,55.38
2023-02-09T18:21:29.408Z,55.81
2023-02-09T18:26:21.065Z,55.94
2023-02-09T18:31:16.387Z,56.13
2023-02-09T18:36:08.665Z,56.55
2023-02-09T18:41:00.326Z,57.28
2023-02-09T18:45:52.148Z,57.66
2023-02-09T18:50:44.170Z,57.33
2023-02-09T18:55:35.865Z,57.59
2023-02-09T19:00:28.054Z,56.97
2023-02-09T19:05:19.972Z,56.72
2023-02-09T19:10:14.510Z,55.84
2023-02-09T19:15:06.358Z,55.33
2023-02-09T19:19:59.170Z,54.49
2023-02-09T19:24:54.133Z,54.95
2023-02-09T19:29:46.487Z,54.33
2023-02-09T19:34:39.997Z,53.97
2023-02-09T19:39:34.897Z,55.09
2023-02-09T19:44:27.822Z,53.94
2023-02-09T19:49:19.572Z,54.08
2023-02-09T19:54:11.212Z,53.90
2023-02-09T19:59:04.120Z,53.69
2023-02-09T20:03:56.324Z,54.31
2023-02-09T20:08:48.106Z,54.91
2023-02-09T20:13:39.892Z,54.86
2023-02-09T20:18:31.466Z,54.64
2023-02-09T20:23:23.772Z,54.94
2023-02-09T20:28:15.595Z,54.71
2023-02-09T20:33:07.308Z,55.58
2023-02-09T20:37:59.035Z,54.89
2023-02-09T20:43:09.380Z,55.53
2023-02-09T20:48:01.342Z,55.86
2023-02-09T20:52:53.019Z,56.02
2023-02-09T20:57:44.660Z,58.51
2023-02-09T21:02:37.882Z,59.58
2023-02-09T21:07:29.697Z,61.88
2023-02-09T21:12:22.249Z,63.42
2023-02-09T21:17:14.417Z,64.77
2023-02-09T21:22:06.507Z,67.16
2023-02-09T21:27:00.620Z,68.26
2023-02-09T21:31:52.644Z,68.52
2023-02-09T21:36:44.495Z,69.32
2023-02-09T21:41:54.862Z,69.95
2023-02-09T21:46:48.733Z,70.51
2023-02-09T21:51:41.990Z,72.02
2023-02-09T21:56:33.695Z,71.63
2023-02-09T22:01:25.409Z,72.00
2023-02-09T22:06:17.120Z,71.93
2023-02-09T22:11:09.003Z,71.57
2023-02-09T22:16:06.177Z,71.53
2023-02-09T22:20:57.812Z,70.97
2023-02-09T22:25:49.439Z,70.84
2023-02-09T22:30:41.202Z,71.69
2023-02-09T22:35:32.901Z,71.62
2023-02-09T22:40:24.569Z,71.28
2023-02-09T22:45:16.321Z,71.55
2023-02-09T22:50:08.657Z,72.48
2023-02-09T22:55:00.441Z,71.61
2023-02-09T22:59:52.176Z,71.54
2023-02-09T23:04:43.823Z,72.09
2023-02-09T23:09:35.648Z,71.84
2023-02-09T23:14:27.858Z,71.35
2023-02-09T23:19:20.958Z,71.55
2023-02-09T23:24:14.291Z,72.00
2023-02-09T23:29:09.519Z,71.99
2023-02-09T23:34:01.148Z,72.34
2023-02-09T23:38:58.857Z,72.59
2023-02-09T23:43:52.309Z,73.07
2023-02-09T23:48:47.970Z,72.97
2023-02-09T23:53:39.982Z,72.38
2023-02-09T23:58:37.986Z,72.44
